sensor_id;sensor_type;location;lat;lon;timestamp;pressure;altitude;pressure_sealevel;temperature;humidity
69351;BME280;57106;51.446;-2.606;2024-03-22T00:01:43;102117.66;;;12.13;63.89
69351;BME280;57106;51.446;-2.606;2024-03-22T00:04:08;102116.09;;;12.13;64.03
69351;BME280;57106;51.446;-2.606;2024-03-22T00:06:33;102118.10;;;12.11;64.53
69351;BME280;57106;51.446;-2.606;2024-03-22T00:08:59;102114.48;;;12.07;64.45
69351;BME280;57106;51.446;-2.606;2024-03-22T00:11:24;102109.85;;;12.25;64.25
69351;BME280;57106;51.446;-2.606;2024-03-22T00:13:51;102107.18;;;12.25;63.62
69351;BME280;57106;51.446;-2.606;2024-03-22T00:16:15;102106.07;;;12.09;63.93
69351;BME280;57106;51.446;-2.606;2024-03-22T00:18:41;102105.77;;;12.08;64.15
69351;BME280;57106;51.446;-2.606;2024-03-22T00:21:07;102105.58;;;12.10;64.00
69351;BME280;57106;51.446;-2.606;2024-03-22T00:23:32;102098.15;;;12.01;64.24
69351;BME280;57106;51.446;-2.606;2024-03-22T00:52:44;102060.47;;;11.84;66.80
69351;BME280;57106;51.446;-2.606;2024-03-22T00:55:05;102050.41;;;11.72;67.31
69351;BME280;57106;51.446;-2.606;2024-03-22T00:57:30;102050.55;;;11.92;66.66
69351;BME280;57106;51.446;-2.606;2024-03-22T00:59:55;102050.77;;;11.96;67.36
69351;BME280;57106;51.446;-2.606;2024-03-22T01:02:21;102048.22;;;12.01;67.24
69351;BME280;57106;51.446;-2.606;2024-03-22T01:04:46;102048.80;;;12.11;67.41
69351;BME280;57106;51.446;-2.606;2024-03-22T01:07:11;102053.52;;;11.86;68.28
69351;BME280;57106;51.446;-2.606;2024-03-22T01:09:37;102052.90;;;12.00;67.98
69351;BME280;57106;51.446;-2.606;2024-03-22T01:12:03;102052.39;;;11.97;68.67
69351;BME280;57106;51.446;-2.606;2024-03-22T01:14:28;102048.48;;;11.92;68.87
69351;BME280;57106;51.446;-2.606;2024-03-22T01:16:54;102046.00;;;12.01;69.03
69351;BME280;57106;51.446;-2.606;2024-03-22T01:19:24;102046.96;;;12.00;69.29
69351;BME280;57106;51.446;-2.606;2024-03-22T01:21:45;102047.65;;;11.85;70.50
69351;BME280;57106;51.446;-2.606;2024-03-22T01:24:10;102047.02;;;11.90;70.92
69351;BME280;57106;51.446;-2.606;2024-03-22T01:26:38;102046.05;;;11.66;72.17
69351;BME280;57106;51.446;-2.606;2024-03-22T01:29:01;102042.40;;;11.43;73.71
69351;BME280;57106;51.446;-2.606;2024-03-22T01:31:27;102041.63;;;11.47;73.95
69351;BME280;57106;51.446;-2.606;2024-03-22T01:33:52;102039.20;;;11.47;74.09
69351;BME280;57106;51.446;-2.606;2024-03-22T01:36:18;102039.72;;;11.41;74.15
69351;BME280;57106;51.446;-2.606;2024-03-22T01:38:44;102036.92;;;11.45;75.05
69351;BME280;57106;51.446;-2.606;2024-03-22T01:41:09;102037.89;;;11.47;75.54
69351;BME280;57106;51.446;-2.606;2024-03-22T01:43:35;102032.79;;;11.36;76.68
69351;BME280;57106;51.446;-2.606;2024-03-22T01:46:00;102029.54;;;11.31;77.33
69351;BME280;57106;51.446;-2.606;2024-03-22T01:48:26;102027.02;;;11.23;77.97
69351;BME280;57106;51.446;-2.606;2024-03-22T01:50:52;102022.30;;;11.43;77.99
69351;BME280;57106;51.446;-2.606;2024-03-22T01:53:17;102016.66;;;11.53;78.13
69351;BME280;57106;51.446;-2.606;2024-03-22T01:55:42;102016.06;;;11.52;78.64
69351;BME280;57106;51.446;-2.606;2024-03-22T01:58:08;102012.62;;;11.25;79.85
69351;BME280;57106;51.446;-2.606;2024-03-22T02:00:33;102006.35;;;11.22;80.91
69351;BME280;57106;51.446;-2.606;2024-03-22T02:03:04;102001.89;;;11.29;80.64
69351;BME280;57106;51.446;-2.606;2024-03-22T02:05:25;102000.79;;;11.18;81.51
69351;BME280;57106;51.446;-2.606;2024-03-22T02:07:50;101997.84;;;11.21;82.16
69351;BME280;57106;51.446;-2.606;2024-03-22T02:10:16;101997.66;;;11.17;82.84
69351;BME280;57106;51.446;-2.606;2024-03-22T02:12:41;101990.43;;;11.21;83.07
69351;BME280;57106;51.446;-2.606;2024-03-22T02:15:08;101993.55;;;11.11;83.86
69351;BME280;57106;51.446;-2.606;2024-03-22T02:17:32;101988.53;;;11.03;84.70
69351;BME280;57106;51.446;-2.606;2024-03-22T02:19:58;101987.85;;;11.06;85.10
69351;BME280;57106;51.446;-2.606;2024-03-22T02:22:28;101984.67;;;10.93;86.26
69351;BME280;57106;51.446;-2.606;2024-03-22T02:24:49;101981.51;;;10.91;86.53
69351;BME280;57106;51.446;-2.606;2024-03-22T02:27:14;101973.82;;;11.09;86.36
69351;BME280;57106;51.446;-2.606;2024-03-22T02:29:40;101969.15;;;11.12;85.82
69351;BME280;57106;51.446;-2.606;2024-03-22T02:32:06;101968.30;;;11.15;85.85
69351;BME280;57106;51.446;-2.606;2024-03-22T02:34:31;101963.46;;;11.23;85.83
69351;BME280;57106;51.446;-2.606;2024-03-22T02:36:57;101961.61;;;11.46;85.22
69351;BME280;57106;51.446;-2.606;2024-03-22T02:39:27;101957.57;;;11.43;84.46
69351;BME280;57106;51.446;-2.606;2024-03-22T02:41:48;101954.22;;;11.52;83.96
69351;BME280;57106;51.446;-2.606;2024-03-22T02:44:16;101951.67;;;11.50;83.86
69351;BME280;57106;51.446;-2.606;2024-03-22T02:46:39;101945.73;;;11.47;84.25
69351;BME280;57106;51.446;-2.606;2024-03-22T02:49:05;101937.59;;;11.49;84.40
69351;BME280;57106;51.446;-2.606;2024-03-22T02:51:30;101929.89;;;11.58;84.90
69351;BME280;57106;51.446;-2.606;2024-03-22T02:53:56;101922.97;;;11.69;84.30
69351;BME280;57106;51.446;-2.606;2024-03-22T02:56:23;101924.13;;;11.53;85.29
69351;BME280;57106;51.446;-2.606;2024-03-22T02:58:48;101922.23;;;11.43;85.90
69351;BME280;57106;51.446;-2.606;2024-03-22T03:01:15;101914.45;;;11.60;85.49
69351;BME280;57106;51.446;-2.606;2024-03-22T03:03:38;101913.89;;;11.64;85.12
69351;BME280;57106;51.446;-2.606;2024-03-22T03:06:04;101914.55;;;11.55;86.10
69351;BME280;57106;51.446;-2.606;2024-03-22T03:18:11;101896.98;;;11.58;86.10
69351;BME280;57106;51.446;-2.606;2024-03-22T03:20:36;101898.97;;;11.67;86.15
69351;BME280;57106;51.446;-2.606;2024-03-22T03:23:02;101899.00;;;11.78;85.77
69351;BME280;57106;51.446;-2.606;2024-03-22T03:25:27;101900.71;;;12.01;85.25
69351;BME280;57106;51.446;-2.606;2024-03-22T03:30:18;101899.24;;;11.85;85.75
69351;BME280;57106;51.446;-2.606;2024-03-22T03:32:52;101889.24;;;11.75;85.69
69351;BME280;57106;51.446;-2.606;2024-03-22T03:35:09;101882.56;;;11.79;86.12
69351;BME280;57106;51.446;-2.606;2024-03-22T03:37:35;101882.42;;;11.79;85.88
69351;BME280;57106;51.446;-2.606;2024-03-22T03:40:01;101881.11;;;11.72;86.31
69351;BME280;57106;51.446;-2.606;2024-03-22T03:42:26;101884.45;;;11.84;86.48
69351;BME280;57106;51.446;-2.606;2024-03-22T03:44:54;101883.61;;;11.92;86.08
69351;BME280;57106;51.446;-2.606;2024-03-22T03:47:17;101879.75;;;11.91;86.45
69351;BME280;57106;51.446;-2.606;2024-03-22T03:49:45;101875.77;;;11.91;86.31
69351;BME280;57106;51.446;-2.606;2024-03-22T03:52:08;101872.16;;;12.01;85.81
69351;BME280;57106;51.446;-2.606;2024-03-22T03:54:34;101873.73;;;12.07;85.88
69351;BME280;57106;51.446;-2.606;2024-03-22T03:56:59;101872.15;;;12.12;85.75
69351;BME280;57106;51.446;-2.606;2024-03-22T03:59:25;101871.19;;;12.09;85.74
69351;BME280;57106;51.446;-2.606;2024-03-22T04:01:50;101871.42;;;11.96;86.07
69351;BME280;57106;51.446;-2.606;2024-03-22T04:04:16;101869.96;;;12.07;85.84
69351;BME280;57106;51.446;-2.606;2024-03-22T04:06:44;101869.98;;;12.12;85.80
69351;BME280;57106;51.446;-2.606;2024-03-22T04:09:07;101871.97;;;11.86;87.15
69351;BME280;57106;51.446;-2.606;2024-03-22T04:11:33;101866.90;;;12.08;86.35
69351;BME280;57106;51.446;-2.606;2024-03-22T04:13:58;101869.31;;;11.73;87.50
69351;BME280;57106;51.446;-2.606;2024-03-22T04:16:24;101865.08;;;11.69;88.17
69351;BME280;57106;51.446;-2.606;2024-03-22T04:18:49;101865.06;;;11.80;87.61
69351;BME280;57106;51.446;-2.606;2024-03-22T04:21:15;101862.82;;;11.56;88.52
69351;BME280;57106;51.446;-2.606;2024-03-22T04:23:40;101857.80;;;11.60;89.16
69351;BME280;57106;51.446;-2.606;2024-03-22T04:26:06;101859.88;;;11.50;89.38
69351;BME280;57106;51.446;-2.606;2024-03-22T04:28:31;101858.01;;;11.44;90.24
69351;BME280;57106;51.446;-2.606;2024-03-22T04:30:59;101861.15;;;11.56;90.13
69351;BME280;57106;51.446;-2.606;2024-03-22T04:33:22;101865.63;;;11.65;89.30
69351;BME280;57106;51.446;-2.606;2024-03-22T04:35:48;101866.80;;;11.62;90.23
69351;BME280;57106;51.446;-2.606;2024-03-22T04:38:13;101865.00;;;11.54;89.73
69351;BME280;57106;51.446;-2.606;2024-03-22T04:40:40;101869.19;;;11.69;90.06
69351;BME280;57106;51.446;-2.606;2024-03-22T04:43:04;101869.82;;;11.82;89.39
69351;BME280;57106;51.446;-2.606;2024-03-22T04:45:30;101865.15;;;11.74;90.04
69351;BME280;57106;51.446;-2.606;2024-03-22T04:47:55;101866.57;;;11.56;91.21
69351;BME280;57106;51.446;-2.606;2024-03-22T04:50:21;101860.93;;;11.69;90.43
69351;BME280;57106;51.446;-2.606;2024-03-22T04:52:46;101859.83;;;11.66;90.93
69351;BME280;57106;51.446;-2.606;2024-03-22T04:55:12;101860.23;;;11.76;90.70
69351;BME280;57106;51.446;-2.606;2024-03-22T04:57:37;101862.87;;;11.77;90.89
69351;BME280;57106;51.446;-2.606;2024-03-22T05:00:04;101860.39;;;11.67;91.44
69351;BME280;57106;51.446;-2.606;2024-03-22T05:02:29;101862.98;;;11.93;90.94
69351;BME280;57106;51.446;-2.606;2024-03-22T05:04:54;101862.75;;;11.88;91.03
69351;BME280;57106;51.446;-2.606;2024-03-22T05:07:20;101861.03;;;11.96;91.07
69351;BME280;57106;51.446;-2.606;2024-03-22T05:09:45;101858.86;;;11.84;91.42
69351;BME280;57106;51.446;-2.606;2024-03-22T05:12:10;101857.73;;;11.93;91.14
69351;BME280;57106;51.446;-2.606;2024-03-22T05:14:36;101855.91;;;11.90;91.35
69351;BME280;57106;51.446;-2.606;2024-03-22T05:17:01;101854.73;;;11.88;91.34
69351;BME280;57106;51.446;-2.606;2024-03-22T05:19:27;101856.68;;;11.96;91.76
69351;BME280;57106;51.446;-2.606;2024-03-22T05:21:52;101855.02;;;11.97;91.02
69351;BME280;57106;51.446;-2.606;2024-03-22T05:24:18;101850.93;;;11.78;91.55
69351;BME280;57106;51.446;-2.606;2024-03-22T05:26:44;101842.38;;;11.92;91.44
69351;BME280;57106;51.446;-2.606;2024-03-22T05:29:09;101844.84;;;11.91;92.32
69351;BME280;57106;51.446;-2.606;2024-03-22T05:31:45;101849.11;;;11.80;92.63
69351;BME280;57106;51.446;-2.606;2024-03-22T05:34:00;101847.87;;;11.68;93.61
69351;BME280;57106;51.446;-2.606;2024-03-22T05:36:26;101836.74;;;11.62;93.58
69351;BME280;57106;51.446;-2.606;2024-03-22T05:38:51;101837.55;;;11.68;94.61
69351;BME280;57106;51.446;-2.606;2024-03-22T05:41:17;101830.81;;;11.81;94.16
69351;BME280;57106;51.446;-2.606;2024-03-22T05:43:42;101833.15;;;11.65;94.22
69351;BME280;57106;51.446;-2.606;2024-03-22T05:46:08;101834.79;;;11.75;94.68
69351;BME280;57106;51.446;-2.606;2024-03-22T05:48:33;101839.35;;;11.69;94.56
69351;BME280;57106;51.446;-2.606;2024-03-22T05:50:59;101841.32;;;11.76;95.22
69351;BME280;57106;51.446;-2.606;2024-03-22T05:53:24;101838.63;;;11.61;95.75
69351;BME280;57106;51.446;-2.606;2024-03-22T05:55:50;101844.43;;;11.83;95.60
69351;BME280;57106;51.446;-2.606;2024-03-22T05:58:16;101844.97;;;11.70;96.19
69351;BME280;57106;51.446;-2.606;2024-03-22T06:00:41;101845.40;;;11.76;96.03
69351;BME280;57106;51.446;-2.606;2024-03-22T06:03:06;101840.33;;;11.87;95.30
69351;BME280;57106;51.446;-2.606;2024-03-22T06:05:33;101838.93;;;12.07;94.37
69351;BME280;57106;51.446;-2.606;2024-03-22T06:07:58;101837.76;;;12.06;93.56
69351;BME280;57106;51.446;-2.606;2024-03-22T06:10:23;101837.69;;;12.02;93.30
69351;BME280;57106;51.446;-2.606;2024-03-22T06:12:48;101837.75;;;12.04;93.24
69351;BME280;57106;51.446;-2.606;2024-03-22T06:15:14;101835.60;;;11.98;93.47
69351;BME280;57106;51.446;-2.606;2024-03-22T06:17:42;101841.01;;;11.97;93.53
69351;BME280;57106;51.446;-2.606;2024-03-22T06:20:06;101844.33;;;12.16;93.31
69351;BME280;57106;51.446;-2.606;2024-03-22T06:22:30;101840.18;;;11.99;92.88
69351;BME280;57106;51.446;-2.606;2024-03-22T06:24:56;101841.95;;;11.89;93.77
69351;BME280;57106;51.446;-2.606;2024-03-22T06:27:21;101844.66;;;12.17;93.00
69351;BME280;57106;51.446;-2.606;2024-03-22T06:29:47;101842.97;;;12.01;92.28
69351;BME280;57106;51.446;-2.606;2024-03-22T06:32:12;101843.38;;;12.19;92.19
69351;BME280;57106;51.446;-2.606;2024-03-22T06:34:38;101842.53;;;12.01;92.87
69351;BME280;57106;51.446;-2.606;2024-03-22T06:37:04;101842.93;;;12.09;92.68
69351;BME280;57106;51.446;-2.606;2024-03-22T06:39:30;101842.28;;;12.22;91.93
69351;BME280;57106;51.446;-2.606;2024-03-22T06:41:54;101845.21;;;12.32;91.39
69351;BME280;57106;51.446;-2.606;2024-03-22T06:44:20;101846.28;;;12.36;90.55
69351;BME280;57106;51.446;-2.606;2024-03-22T06:46:45;101848.41;;;12.22;90.22
69351;BME280;57106;51.446;-2.606;2024-03-22T06:49:11;101847.25;;;12.17;89.97
69351;BME280;57106;51.446;-2.606;2024-03-22T06:51:36;101835.02;;;12.22;90.67
69351;BME280;57106;51.446;-2.606;2024-03-22T06:54:12;101822.05;;;12.16;90.64
69351;BME280;57106;51.446;-2.606;2024-03-22T06:56:30;101820.97;;;12.32;89.84
69351;BME280;57106;51.446;-2.606;2024-03-22T06:58:59;101821.32;;;12.42;89.43
69351;BME280;57106;51.446;-2.606;2024-03-22T07:01:19;101828.92;;;12.57;88.26
69351;BME280;57106;51.446;-2.606;2024-03-22T07:03:44;101831.90;;;12.50;88.19
69351;BME280;57106;51.446;-2.606;2024-03-22T07:08:35;101847.09;;;12.51;86.85
69351;BME280;57106;51.446;-2.606;2024-03-22T07:11:05;101857.92;;;12.26;87.12
69351;BME280;57106;51.446;-2.606;2024-03-22T07:20:45;101856.02;;;12.43;85.18
69351;BME280;57106;51.446;-2.606;2024-03-22T08:01:56;101887.19;;;11.87;84.94
69351;BME280;57106;51.446;-2.606;2024-03-22T08:04:21;101891.43;;;11.99;84.58
69351;BME280;57106;51.446;-2.606;2024-03-22T08:31:03;101904.38;;;11.83;80.89
69351;BME280;57106;51.446;-2.606;2024-03-22T09:09:57;101928.28;;;12.74;75.31
69351;BME280;57106;51.446;-2.606;2024-03-22T09:14:41;101925.86;;;12.76;74.02
69351;BME280;57106;51.446;-2.606;2024-03-22T09:41:25;101914.51;;;12.78;74.40
69351;BME280;57106;51.446;-2.606;2024-03-22T09:43:50;101921.56;;;12.47;74.81
69351;BME280;57106;51.446;-2.606;2024-03-22T09:46:18;101919.37;;;12.73;74.21
69351;BME280;57106;51.446;-2.606;2024-03-22T09:48:43;101921.17;;;12.93;73.62
69351;BME280;57106;51.446;-2.606;2024-03-22T09:51:21;101920.03;;;12.96;72.24
69351;BME280;57106;51.446;-2.606;2024-03-22T09:53:30;101922.60;;;13.04;72.26
69351;BME280;57106;51.446;-2.606;2024-03-22T09:55:54;101919.41;;;13.13;72.14
69351;BME280;57106;51.446;-2.606;2024-03-22T09:58:19;101916.41;;;12.74;72.17
69351;BME280;57106;51.446;-2.606;2024-03-22T10:08:02;101916.16;;;12.89;72.17
69351;BME280;57106;51.446;-2.606;2024-03-22T10:10:27;101907.96;;;12.89;72.37
69351;BME280;57106;51.446;-2.606;2024-03-22T10:12:57;101912.66;;;12.83;72.28
69351;BME280;57106;51.446;-2.606;2024-03-22T10:15:18;101907.17;;;13.05;72.26
69351;BME280;57106;51.446;-2.606;2024-03-22T10:17:44;101901.18;;;12.98;71.67
69351;BME280;57106;51.446;-2.606;2024-03-22T10:20:13;101898.49;;;13.06;71.50
69351;BME280;57106;51.446;-2.606;2024-03-22T10:25:00;101902.58;;;13.26;70.71
69351;BME280;57106;51.446;-2.606;2024-03-22T10:27:28;101911.01;;;13.13;70.90
69351;BME280;57106;51.446;-2.606;2024-03-22T10:29:51;101914.19;;;13.12;69.97
69351;BME280;57106;51.446;-2.606;2024-03-22T10:32:17;101903.18;;;12.99;69.74
69351;BME280;57106;51.446;-2.606;2024-03-22T10:34:43;101903.03;;;13.01;69.48
69351;BME280;57106;51.446;-2.606;2024-03-22T10:37:08;101904.87;;;13.00;69.94
69351;BME280;57106;51.446;-2.606;2024-03-22T10:39:33;101907.51;;;13.25;69.99
69351;BME280;57106;51.446;-2.606;2024-03-22T10:42:00;101902.82;;;12.88;70.68
69351;BME280;57106;51.446;-2.606;2024-03-22T10:46:49;101902.32;;;13.03;68.56
69351;BME280;57106;51.446;-2.606;2024-03-22T10:49:16;101907.29;;;12.97;68.43
69351;BME280;57106;51.446;-2.606;2024-03-22T15:13:36;101706.96;;;13.41;48.56
69351;BME280;57106;51.446;-2.606;2024-03-22T15:16:01;101698.67;;;13.66;46.83
69351;BME280;57106;51.446;-2.606;2024-03-22T15:18:31;101698.54;;;14.04;47.01
69351;BME280;57106;51.446;-2.606;2024-03-22T15:20:52;101695.95;;;14.39;45.99
69351;BME280;57106;51.446;-2.606;2024-03-22T15:23:18;101696.59;;;14.33;43.86
69351;BME280;57106;51.446;-2.606;2024-03-22T15:25:43;101696.22;;;14.37;42.66
69351;BME280;57106;51.446;-2.606;2024-03-22T15:28:21;101698.35;;;14.15;42.46
69351;BME280;57106;51.446;-2.606;2024-03-22T15:32:59;101690.32;;;14.32;42.30
69351;BME280;57106;51.446;-2.606;2024-03-22T15:35:25;101702.95;;;14.09;41.96
69351;BME280;57106;51.446;-2.606;2024-03-22T15:37:51;101696.40;;;13.90;39.74
69351;BME280;57106;51.446;-2.606;2024-03-22T15:42:46;101701.71;;;13.47;40.79
69351;BME280;57106;51.446;-2.606;2024-03-22T15:45:07;101697.63;;;13.09;39.76
69351;BME280;57106;51.446;-2.606;2024-03-22T15:47:32;101704.02;;;12.89;39.86
69351;BME280;57106;51.446;-2.606;2024-03-22T15:49:58;101696.72;;;12.73;40.86
69351;BME280;57106;51.446;-2.606;2024-03-22T15:52:23;101705.82;;;12.96;41.95
69351;BME280;57106;51.446;-2.606;2024-03-22T15:54:49;101705.92;;;13.05;40.94
69351;BME280;57106;51.446;-2.606;2024-03-22T15:57:15;101703.15;;;13.09;40.60
69351;BME280;57106;51.446;-2.606;2024-03-22T15:59:44;101700.91;;;13.18;40.63
69351;BME280;57106;51.446;-2.606;2024-03-22T16:02:06;101711.27;;;12.86;40.87
69351;BME280;57106;51.446;-2.606;2024-03-22T16:04:36;101696.94;;;12.77;40.71
69351;BME280;57106;51.446;-2.606;2024-03-22T16:06:58;101693.73;;;12.85;40.36
69351;BME280;57106;51.446;-2.606;2024-03-22T16:09:22;101693.45;;;12.81;40.97
69351;BME280;57106;51.446;-2.606;2024-03-22T16:11:47;101685.34;;;12.66;42.58
69351;BME280;57106;51.446;-2.606;2024-03-22T16:14:19;101690.44;;;12.75;42.08
69351;BME280;57106;51.446;-2.606;2024-03-22T16:16:39;101690.20;;;12.83;41.65
69351;BME280;57106;51.446;-2.606;2024-03-22T16:19:04;101690.24;;;12.86;41.21
69351;BME280;57106;51.446;-2.606;2024-03-22T16:21:30;101687.04;;;12.98;40.96
69351;BME280;57106;51.446;-2.606;2024-03-22T16:23:55;101689.28;;;13.05;41.05
69351;BME280;57106;51.446;-2.606;2024-03-22T16:31:11;101691.17;;;12.23;42.51
69351;BME280;57106;51.446;-2.606;2024-03-22T16:33:37;101686.82;;;12.30;42.81
69351;BME280;57106;51.446;-2.606;2024-03-22T16:36:03;101694.29;;;12.15;42.17
69351;BME280;57106;51.446;-2.606;2024-03-22T16:38:28;101695.12;;;12.27;41.53
69351;BME280;57106;51.446;-2.606;2024-03-22T16:40:53;101696.74;;;12.14;42.41
69351;BME280;57106;51.446;-2.606;2024-03-22T16:43:19;101693.27;;;12.08;42.05
69351;BME280;57106;51.446;-2.606;2024-03-22T16:45:45;101691.38;;;11.91;41.61
69351;BME280;57106;51.446;-2.606;2024-03-22T16:48:10;101690.68;;;11.86;42.67
69351;BME280;57106;51.446;-2.606;2024-03-22T16:50:36;101693.09;;;12.07;42.69
69351;BME280;57106;51.446;-2.606;2024-03-22T16:53:01;101694.90;;;12.00;42.27
69351;BME280;57106;51.446;-2.606;2024-03-22T16:55:27;101698.09;;;11.93;41.59
69351;BME280;57106;51.446;-2.606;2024-03-22T16:57:53;101705.77;;;11.85;42.22
69351;BME280;57106;51.446;-2.606;2024-03-22T17:00:18;101700.04;;;11.75;42.09
69351;BME280;57106;51.446;-2.606;2024-03-22T17:02:43;101702.54;;;11.71;45.55
69351;BME280;57106;51.446;-2.606;2024-03-22T17:05:08;101702.53;;;11.54;43.21
69351;BME280;57106;51.446;-2.606;2024-03-22T17:10:03;101707.65;;;11.46;42.30
69351;BME280;57106;51.446;-2.606;2024-03-22T17:31:49;101718.91;;;11.44;43.32
69351;BME280;57106;51.446;-2.606;2024-03-22T17:34:17;101718.66;;;11.42;42.67
69351;BME280;57106;51.446;-2.606;2024-03-22T17:36:40;101724.83;;;11.37;43.13
69351;BME280;57106;51.446;-2.606;2024-03-22T17:39:06;101720.39;;;11.27;42.56
69351;BME280;57106;51.446;-2.606;2024-03-22T17:41:31;101714.21;;;11.14;43.28
69351;BME280;57106;51.446;-2.606;2024-03-22T17:56:05;101718.05;;;10.94;42.77
69351;BME280;57106;51.446;-2.606;2024-03-22T17:58:30;101716.86;;;10.82;43.15
69351;BME280;57106;51.446;-2.606;2024-03-22T18:00:56;101715.83;;;11.04;43.10
69351;BME280;57106;51.446;-2.606;2024-03-22T18:03:21;101722.15;;;11.07;43.15
69351;BME280;57106;51.446;-2.606;2024-03-22T18:05:47;101720.44;;;11.18;43.45
69351;BME280;57106;51.446;-2.606;2024-03-22T18:13:14;101718.90;;;10.86;43.40
69351;BME280;57106;51.446;-2.606;2024-03-22T18:15:29;101722.07;;;10.87;43.94
69351;BME280;57106;51.446;-2.606;2024-03-22T18:17:57;101720.39;;;10.90;43.91
69351;BME280;57106;51.446;-2.606;2024-03-22T18:20:21;101721.02;;;10.69;44.62
69351;BME280;57106;51.446;-2.606;2024-03-22T18:22:46;101720.88;;;10.84;44.74
69351;BME280;57106;51.446;-2.606;2024-03-22T18:25:12;101725.18;;;10.70;45.10
69351;BME280;57106;51.446;-2.606;2024-03-22T18:37:25;101721.85;;;10.57;46.14
69351;BME280;57106;51.446;-2.606;2024-03-22T18:39:45;101724.90;;;10.66;46.04
69351;BME280;57106;51.446;-2.606;2024-03-22T18:42:14;101726.35;;;10.66;46.44
69351;BME280;57106;51.446;-2.606;2024-03-22T18:44:40;101722.42;;;10.66;46.53
69351;BME280;57106;51.446;-2.606;2024-03-22T18:47:02;101719.43;;;10.66;46.85
69351;BME280;57106;51.446;-2.606;2024-03-22T18:49:27;101717.89;;;10.58;46.90
69351;BME280;57106;51.446;-2.606;2024-03-22T18:54:19;101711.52;;;10.55;47.87
69351;BME280;57106;51.446;-2.606;2024-03-22T18:56:49;101707.09;;;10.47;47.39
69351;BME280;57106;51.446;-2.606;2024-03-22T18:59:10;101704.58;;;10.28;48.17
69351;BME280;57106;51.446;-2.606;2024-03-22T19:13:45;101724.02;;;10.17;56.95
69351;BME280;57106;51.446;-2.606;2024-03-22T19:16:09;101720.85;;;10.12;58.68
69351;BME280;57106;51.446;-2.606;2024-03-22T19:18:51;101717.34;;;10.00;60.78
69351;BME280;57106;51.446;-2.606;2024-03-22T19:21:00;101714.49;;;9.93;62.35
69351;BME280;57106;51.446;-2.606;2024-03-22T19:23:26;101716.12;;;9.76;64.10
69351;BME280;57106;51.446;-2.606;2024-03-22T19:25:52;101712.37;;;9.68;65.35
69351;BME280;57106;51.446;-2.606;2024-03-22T19:28:17;101716.67;;;9.73;65.63
69351;BME280;57106;51.446;-2.606;2024-03-22T19:30:43;101717.71;;;9.94;65.30
69351;BME280;57106;51.446;-2.606;2024-03-22T19:33:08;101715.28;;;9.93;66.17
69351;BME280;57106;51.446;-2.606;2024-03-22T19:35:34;101716.57;;;10.06;65.70
69351;BME280;57106;51.446;-2.606;2024-03-22T19:38:00;101717.67;;;9.94;66.40
69351;BME280;57106;51.446;-2.606;2024-03-22T19:40:25;101729.24;;;10.23;65.91
69351;BME280;57106;51.446;-2.606;2024-03-22T19:42:51;101742.88;;;10.22;66.10
69351;BME280;57106;51.446;-2.606;2024-03-22T19:45:16;101759.63;;;9.79;67.50
69351;BME280;57106;51.446;-2.606;2024-03-22T19:47:42;101782.18;;;8.35;69.40
69351;BME280;57106;51.446;-2.606;2024-03-22T19:50:08;101763.94;;;7.77;70.99
69351;BME280;57106;51.446;-2.606;2024-03-22T19:52:33;101753.69;;;7.62;73.72
69351;BME280;57106;51.446;-2.606;2024-03-22T19:54:59;101735.95;;;7.46;73.82
69351;BME280;57106;51.446;-2.606;2024-03-22T19:57:24;101729.47;;;7.69;74.62
69351;BME280;57106;51.446;-2.606;2024-03-22T19:59:50;101724.20;;;7.96;74.26
69351;BME280;57106;51.446;-2.606;2024-03-22T20:02:16;101717.51;;;7.95;75.25
69351;BME280;57106;51.446;-2.606;2024-03-22T20:04:41;101717.35;;;7.99;74.82
69351;BME280;57106;51.446;-2.606;2024-03-22T20:07:07;101716.99;;;8.07;74.80
69351;BME280;57106;51.446;-2.606;2024-03-22T20:09:33;101710.71;;;8.18;75.39
69351;BME280;57106;51.446;-2.606;2024-03-22T20:11:59;101710.17;;;8.22;75.28
69351;BME280;57106;51.446;-2.606;2024-03-22T20:14:24;101710.56;;;8.23;75.38
69351;BME280;57106;51.446;-2.606;2024-03-22T20:16:51;101712.78;;;8.31;75.58
69351;BME280;57106;51.446;-2.606;2024-03-22T20:19:15;101707.63;;;8.40;74.80
69351;BME280;57106;51.446;-2.606;2024-03-22T20:21:41;101704.58;;;8.40;75.17
69351;BME280;57106;51.446;-2.606;2024-03-22T20:24:07;101704.20;;;8.33;75.12
69351;BME280;57106;51.446;-2.606;2024-03-22T20:26:32;101706.41;;;8.44;73.52
69351;BME280;57106;51.446;-2.606;2024-03-22T20:28:58;101703.73;;;8.41;72.05
69351;BME280;57106;51.446;-2.606;2024-03-22T20:31:23;101704.53;;;8.27;71.95
69351;BME280;57106;51.446;-2.606;2024-03-22T20:33:49;101704.17;;;8.31;72.54
69351;BME280;57106;51.446;-2.606;2024-03-22T20:36:15;101704.88;;;8.30;72.58
